KHGR/HGR METAR and TAF weather

Enter ICAO airport designator
Station Type Date Time Source
KHGR METAR 2019/11/22 00:53 UTC NOAA

KHGR 220053Z 16009KT 10SM OVC110 11/01 A3000 RMK AO2 SLP173 T01060006


Station Type Date Time Source
KHGR Decoded METAR 2019/11/22 00:53 UTC NOAA

HAGERSTOWN REGIONAL AIRPORT, MD, United States (KHGR) 39-42N 077-44W 224M
Nov 21, 2019 - 07:53 PM EST / 2019.11.22 0053 UTC
Wind: from the SSE (160 degrees) at 10 MPH (9 KT):0
Visibility: 10 mile(s):0
Sky conditions: overcast
Temperature: 51.1 F (10.6 C)
Dew Point: 33.1 F (0.6 C)
Relative Humidity: 49%
Pressure (altimeter): 30 in. Hg (1015 hPa)
ob: KHGR 220053Z 16009KT 10SM OVC110 11/01 A3000 RMK AO2 SLP173 T01060006
cycle: 1

Station Type Date Time Source
KHGR TAF UTC NOAA

Error!

Example: see airport list